Details From KPWT - Bremerton National
To KTIW - TACOMA NARROWS
Flight Number -
Tags generated
Created
Modified
Stats Distance 15 nm / 28 km
Max Altitude 0 ft / 0 m
Waypoints 2
Social Downloads 0
Likes 0
Share VATSIM

Download

Looking for another format? Having issues loading an existing format? Contact us
Advertisement - Login to hide

Notes

Basic altitude profile: - Ascent Rate: 2500ft/min - Ascent Speed: 250kts - Cruise Altitude: 35000ft - Cruise Speed: 420kts - Descent Rate: 1500ft/min - Descent Speed: 250kts Options: - Use NATs: yes - Use PACOTS: yes - Use low airways: yes - Use high airways: yes

Route

KPWT KTIW

ID Type Via Altitude Latitude Longitude Leg Dist Tot Dist Heading (true) Name
O KPWT APT - 0 ft / 0 m 47.49024˚ -122.76481˚ - 0 nm - Bremerton National
O KTIW APT - 0 ft / 0 m 47.26793˚ -122.57811˚ 15 nm 15 nm 150° / 150° TACOMA NARROWS

Altitude Profile

Advertisement - Login to hide

KPWT

Details ICAO KPWT (PWT)
Name Bremerton National
Region United States
Timezone America/Los_Angeles (UTC-7.0)
Stats Elevation 444 ft / 135 m (AMSL)
Location 47.490240° -122.764815°
Runways 1
Magnetic Variation 15.713° E

METAR

KPWT 251556Z AUTO 00000KT 10SM SCT010 OVC028 12/09 A3006 RMK AO2 SLP197 T01220094

Decode

TAF

TAF KPWT 251124Z 2512/2612 VRB03KT P6SM BKN035 FM251800 VRB03KT P6SM SCT035 FM252100 VRB03KT P6SM SCT040 BKN200 FM261000 19006KT P6SM OVC022

Decode

Departure Runways

ID Width Length Bearing (true) Bearing (mag) Surface Threshold Offset Overrun Length
01 151 ft / 46 m 5,997 ft / 1,828 m 32.69° 16.98° Asphalt 0 ft / 0 m 0 ft / 0 m
19 151 ft / 46 m 5,997 ft / 1,828 m 212.70° 196.99° Asphalt 0 ft / 0 m 1,243 ft / 379 m

KTIW

Details ICAO KTIW (TIW)
Name TACOMA NARROWS
Region United States
Timezone America/Los_Angeles (UTC-7.0)
Stats Elevation 292 ft / 89 m (AMSL)
Location 47.267930° -122.578113°
Runways 1
Magnetic Variation 15.627° E

METAR

KTIW 251553Z VRB03KT 10SM BKN019 OVC044 11/08 A3007 RMK AO2 SLP182 T01060083

Decode

TAF

Not found

Destination Runways

ID Width Length Bearing (true) Bearing (mag) Surface Threshold Offset Overrun Length
17 150 ft / 46 m 5,004 ft / 1,525 m 186.99° 171.36° Asphalt 0 ft / 0 m 0 ft / 0 m
35 150 ft / 46 m 5,004 ft / 1,525 m 6.99° 351.36° Asphalt 0 ft / 0 m 0 ft / 0 m

Approach Navaids

Runway Type Ident Frequency Range Bearing (true) Bearing (mag) Slope Elevation
17 Localiser ITIW 109.10 MHz 18 nm / 33 km 186.99° 171.36° - 292 ft / 89 m (AMSL)
17 Glidescope ITIW 109.10 MHz 10 nm / 19 km 186.99° 171.36° 3.00° 292 ft / 89 m (AMSL)